Time;durP1;ratioP1;P1;durP2;ratioP2;P2;SDS_P1;SDS_P2;PMS_P1;PMS_P2;Temp;Humidity;BMP_temperature;BMP_pressure;BME280_temperature;BME280_humidity;BME280_pressure;Samples;Min_cycle;Max_cycle;Signal;HPM_P1;HPM_P2
2022/12/05 00:01:39;;;;;;;8.13;2.45;;;4.80;99.90;;;;;;4733052;30;20043;-78
2022/12/05 00:04:11;;;;;;;7.13;2.70;;;5.20;99.90;;;;;;4730486;30;20264;-78
2022/12/05 00:06:40;;;;;;;6.55;2.50;;;4.00;99.90;;;;;;4736637;30;20052;-78
2022/12/05 00:09:09;;;;;;;5.35;2.10;;;5.20;99.90;;;;;;4749078;30;20048;-78
2022/12/05 00:11:39;;;;;;;9.13;2.70;;;5.20;99.90;;;;;;4749743;30;20166;-78
2022/12/05 00:14:09;;;;;;;6.35;2.30;;;5.20;99.90;;;;;;4745010;30;20045;-78
2022/12/05 00:16:38;;;;;;;7.75;2.60;;;5.20;99.90;;;;;;4751381;30;20052;-78
2022/12/05 00:19:07;;;;;;;8.23;3.10;;;5.20;99.90;;;;;;4749476;30;20052;-78
2022/12/05 00:21:36;;;;;;;6.60;2.50;;;5.20;99.90;;;;;;4733997;30;20049;-78
2022/12/05 00:24:05;;;;;;;7.57;2.65;;;5.20;99.90;;;;;;4721468;30;20061;-79
2022/12/05 00:26:32;;;;;;;6.25;2.10;;;5.20;99.90;;;;;;4722108;30;20058;-78
2022/12/05 00:29:00;;;;;;;5.03;2.42;;;5.10;99.90;;;;;;4733205;30;20056;-78
2022/12/05 00:31:27;;;;;;;6.03;2.35;;;5.20;99.90;;;;;;4732148;30;20067;-78
2022/12/05 00:33:58;;;;;;;7.63;2.80;;;5.10;99.90;;;;;;4739925;30;20051;-78
2022/12/05 00:36:28;;;;;;;6.15;2.22;;;5.40;99.90;;;;;;4753163;30;20044;-78
2022/12/05 00:38:57;;;;;;;7.80;2.35;;;5.20;99.90;;;;;;4736081;30;20364;-79
2022/12/05 00:41:26;;;;;;;6.47;2.40;;;5.20;99.90;;;;;;4737107;30;20048;-78
2022/12/05 00:43:54;;;;;;;8.30;2.45;;;5.00;99.90;;;;;;4751271;30;21096;-78
2022/12/05 00:46:25;;;;;;;5.72;1.95;;;5.20;99.90;;;;;;4721074;30;20106;-78
2022/12/05 00:48:53;;;;;;;5.63;2.13;;;5.10;99.90;;;;;;4746420;30;20516;-78
2022/12/05 00:51:27;;;;;;;5.45;2.20;;;5.10;99.90;;;;;;4743255;30;20077;-78
2022/12/05 00:53:58;;;;;;;6.20;2.38;;;5.20;99.90;;;;;;4751254;30;20504;-78
2022/12/05 00:56:26;;;;;;;6.10;2.65;;;5.10;99.90;;;;;;4738444;30;20060;-78
2022/12/05 00:58:55;;;;;;;5.15;1.50;;;5.20;99.90;;;;;;4735655;30;20044;-78
2022/12/05 01:01:28;;;;;;;6.65;2.05;;;5.10;99.90;;;;;;4735382;30;20072;-79
2022/12/05 01:03:56;;;;;;;5.65;2.10;;;5.10;99.90;;;;;;4730942;30;20056;-78
2022/12/05 01:06:25;;;;;;;5.78;2.10;;;5.10;99.90;;;;;;4743686;30;20052;-79
2022/12/05 01:08:57;;;;;;;6.63;2.20;;;5.10;99.90;;;;;;4734534;30;20049;-79
2022/12/05 01:11:25;;;;;;;7.22;2.13;;;5.10;99.90;;;;;;4735882;30;20055;-79
2022/12/05 01:13:53;;;;;;;6.70;2.20;;;5.10;99.90;;;;;;4735261;30;21401;-79
2022/12/05 01:16:27;;;;;;;4.97;2.22;;;5.10;99.90;;;;;;4745426;30;20099;-78
2022/12/05 01:18:56;;;;;;;6.38;2.60;;;5.10;99.90;;;;;;4748749;30;20082;-78
2022/12/05 01:21:24;;;;;;;4.78;1.90;;;5.10;99.90;;;;;;4749540;30;20048;-78
2022/12/05 01:23:51;;;;;;;5.05;2.00;;;5.10;99.90;;;;;;4737073;30;20052;-78
2022/12/05 01:26:20;;;;;;;5.85;1.90;;;5.20;99.90;;;;;;4745909;30;20056;-78
2022/12/05 01:28:48;;;;;;;6.18;2.45;;;5.10;99.90;;;;;;4749470;30;20054;-78
2022/12/05 01:31:25;;;;;;;5.75;2.03;;;5.10;99.90;;;;;;4733254;30;20076;-78
2022/12/05 01:33:54;;;;;;;4.80;2.03;;;5.10;99.90;;;;;;4745571;30;20413;-78
2022/12/05 01:36:22;;;;;;;6.00;2.38;;;5.10;99.90;;;;;;4749697;30;20047;-78
2022/12/05 01:38:50;;;;;;;7.72;2.72;;;5.10;99.90;;;;;;4733648;30;20087;-78
2022/12/05 01:41:23;;;;;;;5.38;2.45;;;5.00;99.90;;;;;;4735395;30;20056;-78
2022/12/05 01:43:53;;;;;;;7.78;3.08;;;5.00;99.90;;;;;;4730851;30;20489;-78
2022/12/05 01:46:21;;;;;;;7.97;3.08;;;5.00;99.90;;;;;;4746822;30;20048;-79
2022/12/05 01:48:50;;;;;;;6.10;2.60;;;5.00;99.90;;;;;;4747825;30;20079;-78
2022/12/05 01:51:18;;;;;;;5.88;2.42;;;5.00;99.90;;;;;;4738067;30;20117;-77
2022/12/05 01:53:45;;;;;;;6.50;2.30;;;5.10;99.90;;;;;;4737940;30;20065;-78
2022/12/05 01:56:12;;;;;;;6.30;2.45;;;5.00;99.90;;;;;;4733701;30;20386;-78
2022/12/05 01:58:42;;;;;;;6.55;2.75;;;5.00;99.90;;;;;;4736202;30;20075;-78
2022/12/05 02:01:11;;;;;;;8.25;3.00;;;4.80;99.90;;;;;;4738076;30;20059;-78
2022/12/05 02:03:40;;;;;;;6.82;2.30;;;5.00;99.90;;;;;;4746297;30;20071;-78
2022/12/05 02:06:08;;;;;;;9.43;2.33;;;4.90;99.90;;;;;;4735058;30;20056;-78
2022/12/05 02:08:36;;;;;;;7.75;3.28;;;5.00;99.90;;;;;;4734935;30;20052;-78
2022/12/05 02:11:06;;;;;;;7.47;2.60;;;5.00;99.90;;;;;;4716179;30;20052;-78
2022/12/05 02:13:36;;;;;;;7.68;2.67;;;5.00;99.90;;;;;;4735186;30;20060;-78
2022/12/05 02:16:33;;;;;;;7.38;2.88;;;4.90;99.90;;;;;;4746938;30;20075;-78
2022/12/05 02:19:47;;;;;;;6.43;2.67;;;5.00;99.90;;;;;;4746625;30;20099;-78
2022/12/05 02:22:43;;;;;;;8.07;3.03;;;5.00;99.90;;;;;;4751441;30;20044;-78
2022/12/05 02:25:48;;;;;;;10.48;3.13;;;5.00;99.90;;;;;;4722804;30;20056;-78
2022/12/05 02:28:15;;;;;;;7.47;2.92;;;5.00;99.90;;;;;;4742023;30;20059;-78
2022/12/05 02:31:10;;;;;;;9.43;3.53;;;5.00;99.90;;;;;;4726934;30;20138;-78
2022/12/05 02:33:49;;;;;;;8.00;3.30;;;5.00;99.90;;;;;;4739109;30;20066;-78
2022/12/05 02:36:22;;;;;;;9.65;3.15;;;5.00;99.90;;;;;;4726331;30;20045;-78
2022/12/05 02:39:34;;;;;;;8.45;3.30;;;5.00;99.90;;;;;;4740487;30;20064;-78
2022/12/05 02:42:12;;;;;;;8.63;4.07;;;5.00;99.90;;;;;;4730770;30;20063;-78
2022/12/05 02:44:51;;;;;;;10.35;4.10;;;5.00;99.90;;;;;;4753351;30;20563;-78
2022/12/05 02:47:21;;;;;;;7.25;2.92;;;5.00;99.90;;;;;;4738306;30;20101;-78
2022/12/05 02:49:51;;;;;;;8.73;3.78;;;4.90;99.90;;;;;;4717590;30;20053;-78
2022/12/05 02:52:20;;;;;;;9.77;4.03;;;5.00;99.90;;;;;;4732846;30;20062;-78
2022/12/05 02:54:49;;;;;;;10.43;3.67;;;5.00;99.90;;;;;;4735095;30;20063;-78
2022/12/05 02:57:17;;;;;;;9.93;4.18;;;4.90;99.90;;;;;;4722956;30;20052;-78
2022/12/05 02:59:44;;;;;;;9.38;3.88;;;4.90;99.90;;;;;;4752241;30;20100;-78
2022/12/05 03:02:33;;;;;;;9.63;4.05;;;4.90;99.90;;;;;;4736985;30;20582;-78
2022/12/05 03:05:18;;;;;;;9.55;3.53;;;4.90;99.90;;;;;;4737004;30;20060;-78
2022/12/05 03:07:49;;;;;;;7.75;3.22;;;4.90;99.90;;;;;;4748155;30;20096;-78
2022/12/05 03:10:22;;;;;;;9.02;3.50;;;4.90;99.90;;;;;;4750164;30;20485;-78
2022/12/05 03:12:55;;;;;;;10.07;3.90;;;5.00;99.90;;;;;;4736440;30;20079;-78
2022/12/05 03:15:33;;;;;;;9.48;4.15;;;4.90;99.90;;;;;;4741439;30;20040;-78
2022/12/05 03:18:13;;;;;;;9.70;4.47;;;4.90;99.90;;;;;;4748906;30;20087;-78
2022/12/05 03:20:53;;;;;;;9.48;3.63;;;3.70;99.90;;;;;;4736402;30;20053;-78
2022/12/05 03:23:29;;;;;;;12.15;5.00;;;4.90;99.90;;;;;;4748514;30;20147;-79
2022/12/05 03:26:10;;;;;;;11.00;4.20;;;5.00;99.90;;;;;;4744690;30;20064;-78
2022/12/05 03:28:55;;;;;;;8.95;4.07;;;4.90;99.90;;;;;;4753962;30;20121;-78
2022/12/05 03:32:04;;;;;;;8.05;3.95;;;4.90;99.90;;;;;;4750479;30;20077;-78
2022/12/05 03:34:37;;;;;;;8.85;3.95;;;4.90;99.90;;;;;;4744643;30;20049;-78
2022/12/05 03:37:10;;;;;;;8.20;3.70;;;4.90;99.90;;;;;;4751678;30;20076;-78
2022/12/05 03:39:42;;;;;;;9.52;4.53;;;4.90;99.90;;;;;;4736362;30;20079;-78
2022/12/05 03:42:16;;;;;;;8.32;3.35;;;4.90;99.90;;;;;;4734962;30;20416;-78
2022/12/05 03:44:56;;;;;;;8.73;4.03;;;5.00;99.90;;;;;;4747179;30;20622;-78
2022/12/05 03:47:41;;;;;;;8.75;3.72;;;5.30;99.90;;;;;;4739030;30;20048;-78
2022/12/05 03:50:36;;;;;;;8.65;3.67;;;4.30;99.90;;;;;;4740034;30;20056;-78
2022/12/05 03:53:08;;;;;;;9.05;3.75;;;4.30;99.90;;;;;;4725615;30;20052;-78
2022/12/05 03:56:03;;;;;;;9.23;3.72;;;4.90;99.90;;;;;;4748423;30;20049;-78
2022/12/05 03:58:37;;;;;;;9.02;3.85;;;4.90;99.90;;;;;;4735698;30;20047;-79
2022/12/05 04:01:06;;;;;;;8.60;3.50;;;4.70;99.90;;;;;;4733810;30;20053;-78
2022/12/05 04:03:42;;;;;;;11.93;4.57;;;4.90;99.90;;;;;;4723268;30;20056;-78
2022/12/05 04:06:17;;;;;;;9.52;4.25;;;4.80;99.90;;;;;;4733641;30;20052;-78
2022/12/05 04:08:52;;;;;;;8.25;3.67;;;4.60;99.90;;;;;;4745925;30;20064;-79
2022/12/05 04:11:24;;;;;;;9.02;3.85;;;6.00;99.90;;;;;;4737631;30;20606;-79
2022/12/05 04:14:02;;;;;;;11.68;4.40;;;4.90;99.90;;;;;;4740377;30;20052;-79
2022/12/05 04:17:03;;;;;;;9.80;3.97;;;4.90;99.90;;;;;;4737686;30;20169;-79
2022/12/05 04:22:38;;;;;;;12.00;4.65;;;4.90;99.90;;;;;;4751600;30;20102;-79
2022/12/05 04:28:31;;;;;;;8.70;3.60;;;4.90;99.90;;;;;;4747092;30;20513;-78
2022/12/05 04:31:18;;;;;;;8.43;3.88;;;4.90;99.90;;;;;;4746473;30;20136;-78
2022/12/05 04:34:06;;;;;;;10.77;4.15;;;5.50;99.90;;;;;;4744235;30;20048;-78
2022/12/05 04:36:37;;;;;;;9.13;3.72;;;4.90;99.90;;;;;;4736840;30;20110;-78
2022/12/05 04:39:13;;;;;;;10.40;4.20;;;4.90;99.90;;;;;;4752217;30;20059;-78
2022/12/05 04:42:10;;;;;;;9.13;3.88;;;4.90;99.90;;;;;;4724077;30;20040;-78
2022/12/05 04:44:45;;;;;;;8.77;3.72;;;4.90;99.90;;;;;;4736677;30;20044;-78
2022/12/05 04:47:15;;;;;;;9.48;3.75;;;4.90;99.90;;;;;;4744353;30;20047;-78
2022/12/05 04:49:44;;;;;;;9.27;4.28;;;4.90;99.90;;;;;;4736575;30;20048;-78
2022/12/05 04:52:20;;;;;;;10.15;4.32;;;4.90;99.90;;;;;;4737145;30;20051;-78
2022/12/05 04:55:00;;;;;;;9.23;4.10;;;4.90;99.90;;;;;;4736547;30;20059;-78
2022/12/05 04:57:31;;;;;;;9.75;3.95;;;4.90;99.90;;;;;;4750216;30;20500;-78
2022/12/05 04:59:59;;;;;;;12.48;4.30;;;4.90;99.90;;;;;;4751150;30;20559;-78
2022/12/05 05:02:50;;;;;;;10.60;4.47;;;4.90;99.90;;;;;;4745958;30;20135;-78
2022/12/05 05:05:19;;;;;;;10.35;4.47;;;4.90;99.90;;;;;;4747404;30;20068;-78
2022/12/05 05:07:49;;;;;;;11.07;4.35;;;5.70;99.90;;;;;;4733694;30;20056;-78
2022/12/05 05:10:26;;;;;;;10.98;4.30;;;4.80;99.90;;;;;;4734623;30;20052;-78
2022/12/05 05:12:53;;;;;;;9.73;3.92;;;4.90;99.90;;;;;;4734181;30;20053;-79
2022/12/05 05:15:20;;;;;;;8.68;3.60;;;4.80;99.90;;;;;;4722160;30;20044;-78
2022/12/05 05:17:47;;;;;;;11.27;4.38;;;4.90;99.90;;;;;;4744828;30;20044;-78
2022/12/05 05:20:24;;;;;;;10.00;4.45;;;4.90;99.90;;;;;;4734564;30;20076;-78
2022/12/05 05:22:55;;;;;;;9.93;4.28;;;4.80;99.90;;;;;;4742898;30;20067;-78
2022/12/05 05:25:24;;;;;;;9.15;2.78;;;3.90;99.90;;;;;;4735750;30;20969;-78
2022/12/05 05:27:53;;;;;;;9.73;4.00;;;4.90;99.90;;;;;;4734105;30;20068;-78
2022/12/05 05:30:22;;;;;;;9.15;4.40;;;4.90;99.90;;;;;;4737886;30;20063;-78
2022/12/05 05:32:49;;;;;;;10.05;4.05;;;4.90;99.90;;;;;;4732907;30;20059;-78
2022/12/05 05:35:16;;;;;;;7.68;3.60;;;4.40;99.90;;;;;;4754126;30;20044;-78
2022/12/05 05:37:43;;;;;;;9.05;4.25;;;4.90;99.90;;;;;;4752363;30;20109;-78
2022/12/05 05:40:12;;;;;;;8.80;3.88;;;4.90;99.90;;;;;;4738564;30;20048;-78
2022/12/05 05:42:48;;;;;;;8.63;3.80;;;4.90;99.90;;;;;;4737708;30;20114;-78
2022/12/05 05:45:15;;;;;;;10.63;4.85;;;4.80;99.90;;;;;;4735108;30;20076;-78
2022/12/05 05:47:43;;;;;;;9.85;4.25;;;5.00;99.90;;;;;;4751252;30;20417;-78
2022/12/05 05:50:10;;;;;;;10.63;4.65;;;4.90;99.90;;;;;;4720115;30;20082;-78
2022/12/05 05:52:45;;;;;;;10.23;4.45;;;4.90;99.90;;;;;;4744880;30;20052;-78
2022/12/05 05:55:12;;;;;;;8.70;4.22;;;3.40;99.90;;;;;;4737236;30;20048;-78
2022/12/05 05:57:39;;;;;;;9.32;4.35;;;4.20;99.90;;;;;;4746532;30;20052;-79
2022/12/05 06:00:07;;;;;;;10.23;4.53;;;4.90;99.90;;;;;;4750562;30;20051;-79
2022/12/05 06:02:35;;;;;;;10.88;4.57;;;4.90;99.90;;;;;;4737319;30;20082;-78
2022/12/05 06:05:03;;;;;;;8.70;3.83;;;4.90;99.90;;;;;;4734790;30;20048;-78
2022/12/05 06:07:31;;;;;;;8.93;4.13;;;4.90;99.90;;;;;;4724294;30;20040;-78
2022/12/05 06:09:58;;;;;;;9.40;4.10;;;4.90;99.90;;;;;;4725195;30;20056;-78
2022/12/05 06:12:25;;;;;;;10.85;4.13;;;4.90;99.90;;;;;;4751863;30;20147;-78
2022/12/05 06:14:53;;;;;;;13.63;4.63;;;5.10;99.90;;;;;;4741325;30;20102;-79
2022/12/05 06:17:20;;;;;;;10.88;4.95;;;4.90;99.90;;;;;;4738937;30;20099;-79
2022/12/05 06:19:47;;;;;;;10.43;4.85;;;5.30;99.90;;;;;;4749510;30;20436;-79
2022/12/05 06:22:14;;;;;;;10.52;4.32;;;5.20;99.90;;;;;;4736348;30;20049;-78
2022/12/05 06:24:41;;;;;;;8.88;2.75;;;4.90;99.90;;;;;;4733903;30;20052;-78
2022/12/05 06:27:08;;;;;;;8.85;4.30;;;4.90;99.90;;;;;;4725065;30;20079;-78
2022/12/05 06:29:35;;;;;;;8.18;3.35;;;5.40;99.90;;;;;;4753767;30;20056;-78
2022/12/05 06:32:03;;;;;;;9.98;4.25;;;4.90;99.90;;;;;;4753715;30;20072;-78
2022/12/05 06:34:31;;;;;;;9.32;3.47;;;5.40;99.90;;;;;;4733283;30;20217;-78
2022/12/05 06:36:59;;;;;;;7.72;3.63;;;5.10;99.90;;;;;;4754097;30;20082;-78
2022/12/05 06:39:27;;;;;;;9.40;3.72;;;5.60;99.90;;;;;;4751275;30;20135;-79
2022/12/05 06:41:54;;;;;;;7.68;3.58;;;4.90;99.90;;;;;;4751730;30;20052;-79
2022/12/05 06:44:21;;;;;;;8.02;3.35;;;5.00;99.90;;;;;;4739054;30;21368;-79
2022/12/05 06:46:48;;;;;;;7.50;3.67;;;5.00;99.90;;;;;;4734340;30;20127;-79
2022/12/05 06:49:15;;;;;;;8.57;3.70;;;5.00;99.90;;;;;;4736312;30;20063;-78
2022/12/05 06:51:42;;;;;;;9.02;4.35;;;5.10;99.90;;;;;;4755946;30;20044;-78
2022/12/05 06:54:11;;;;;;;10.88;3.30;;;5.10;99.90;;;;;;4750378;30;20139;-78
2022/12/05 06:56:38;;;;;;;9.63;4.03;;;4.20;99.90;;;;;;4734570;30;20059;-78
2022/12/05 06:59:05;;;;;;;6.68;3.35;;;5.10;99.90;;;;;;4731979;30;20139;-79
2022/12/05 07:01:40;;;;;;;8.15;3.85;;;5.10;99.90;;;;;;4752241;30;20510;-78
2022/12/05 07:54:58;;;;;;;6.75;2.97;;;5.50;99.90;;;;;;5500464;24;20065;-78
2022/12/05 08:01:41;;;;;;;8.88;3.20;;;5.60;99.90;;;;;;5789359;24;20034;31
2022/12/05 08:11:16;;;;;;;10.33;3.70;;;5.70;99.90;;;;;;5689498;24;20030;-77
2022/12/05 08:14:28;;;;;;;3.90;2.42;;;5.70;99.90;;;;;;5268747;24;20273;-78
2022/12/05 08:48:55;;;;;;;8.30;3.42;;;6.00;99.90;;;;;;5091151;24;20067;-78
2022/12/05 09:29:43;;;;;;;11.98;7.05;;;5.80;99.90;;;;;;5351538;24;20040;-77
2022/12/05 09:33:09;;;;;;;11.60;6.85;;;6.10;99.90;;;;;;4895275;24;20052;-77
2022/12/05 10:46:34;;;;;;;12.57;6.28;;;7.60;99.90;;;;;;5512994;24;20179;-78
2022/12/05 15:33:11;;;;;;;27.85;14.02;;;7.00;99.90;;;;;;4702214;30;20057;-78
2022/12/05 15:35:40;;;;;;;32.42;17.35;;;7.00;99.90;;;;;;4705315;30;20041;-78
2022/12/05 15:38:25;;;;;;;32.50;17.98;;;7.00;99.90;;;;;;4720391;30;20059;-78
2022/12/05 15:40:56;;;;;;;30.13;15.65;;;6.90;99.90;;;;;;4706276;30;20054;-78
2022/12/05 15:49:34;;;;;;;28.20;14.73;;;6.90;99.90;;;;;;5637247;24;20028;-79
2022/12/05 15:52:40;;;;;;;163.43;89.35;;;6.90;99.90;;;;;;5056641;28;20389;-79
2022/12/05 15:55:17;;;;;;;166.50;95.32;;;6.90;99.90;;;;;;5060277;28;20040;-79
2022/12/05 15:57:53;;;;;;;85.68;49.03;;;6.90;99.90;;;;;;5046583;28;20091;-79
2022/12/05 16:00:21;;;;;;;42.45;26.10;;;6.90;99.90;;;;;;5059679;28;20048;-79
2022/12/05 16:03:19;;;;;;;37.28;22.98;;;6.90;99.90;;;;;;5044173;28;20506;-79
2022/12/05 16:05:56;;;;;;;22.80;12.07;;;6.90;99.90;;;;;;5044271;28;20045;-79
2022/12/05 16:08:28;;;;;;;19.58;9.02;;;6.90;99.90;;;;;;5046270;28;20049;-79
2022/12/05 16:10:56;;;;;;;17.40;8.63;;;6.90;99.90;;;;;;5052388;28;20044;-79
2022/12/05 16:13:26;;;;;;;16.02;8.70;;;6.90;99.90;;;;;;5050170;28;20046;-79
2022/12/05 16:15:53;;;;;;;13.45;7.10;;;6.90;99.90;;;;;;5047201;28;20076;-80
2022/12/05 16:18:30;;;;;;;14.35;7.13;;;6.90;99.90;;;;;;5055573;28;22043;-79
2022/12/05 16:20:57;;;;;;;12.65;6.25;;;6.90;99.90;;;;;;5052910;28;20049;-79
2022/12/05 16:23:28;;;;;;;21.35;14.02;;;6.90;99.90;;;;;;5034315;28;20048;-79
2022/12/05 16:26:15;;;;;;;14.38;8.00;;;6.90;99.90;;;;;;5037750;28;20057;-79
2022/12/05 16:28:55;;;;;;;19.40;11.57;;;6.90;99.90;;;;;;5049810;28;20131;-79
2022/12/05 16:31:22;;;;;;;15.85;9.18;;;6.90;99.90;;;;;;5038256;28;20049;-79
2022/12/05 16:34:03;;;;;;;18.60;10.35;;;6.90;99.90;;;;;;5041660;28;20115;-79
2022/12/05 16:36:31;;;;;;;14.65;8.68;;;6.90;99.90;;;;;;5066350;28;20875;-79
2022/12/05 16:39:06;;;;;;;18.17;8.32;;;6.90;99.90;;;;;;5039262;28;20049;-79
2022/12/05 16:41:38;;;;;;;13.07;6.60;;;6.90;99.90;;;;;;5052508;28;20384;-79
2022/12/05 16:44:45;;;;;;;15.85;8.63;;;6.80;99.90;;;;;;5042097;28;20048;-79
2022/12/05 16:47:42;;;;;;;11.82;6.60;;;6.90;99.90;;;;;;5049311;28;20545;-79
2022/12/05 16:50:31;;;;;;;12.52;6.93;;;6.80;99.90;;;;;;5059928;28;20416;-79
2022/12/05 16:53:07;;;;;;;11.80;6.10;;;6.80;99.90;;;;;;5038519;28;20051;-79
2022/12/05 16:55:38;;;;;;;11.60;6.32;;;6.80;99.90;;;;;;5060976;28;20496;-79
2022/12/05 16:58:11;;;;;;;15.50;7.22;;;6.80;99.90;;;;;;5052076;28;20048;-79
2022/12/05 17:00:38;;;;;;;15.52;6.90;;;6.80;99.90;;;;;;5051487;28;20057;-79
2022/12/05 17:03:11;;;;;;;16.95;7.82;;;6.80;99.90;;;;;;5048459;28;20576;-79
2022/12/05 17:05:59;;;;;;;17.65;8.75;;;6.80;99.90;;;;;;5040111;28;20129;-79
2022/12/05 17:08:26;;;;;;;18.65;8.05;;;6.80;99.90;;;;;;5035106;28;21081;-79
2022/12/05 17:10:53;;;;;;;22.23;8.35;;;6.70;99.90;;;;;;5045057;28;20045;-79
2022/12/05 17:13:20;;;;;;;21.92;9.77;;;6.80;99.90;;;;;;5040575;28;20045;-79
2022/12/05 17:15:48;;;;;;;18.33;8.48;;;6.80;99.90;;;;;;5035364;28;20504;-79
2022/12/05 17:18:22;;;;;;;16.88;8.18;;;6.80;99.90;;;;;;5045365;28;20056;-79
2022/12/05 17:20:59;;;;;;;21.27;10.02;;;6.80;99.90;;;;;;5027399;28;20076;-79
2022/12/05 17:23:27;;;;;;;23.25;10.55;;;6.80;99.90;;;;;;5032402;28;20063;-79
2022/12/05 17:25:56;;;;;;;23.80;9.68;;;6.80;99.90;;;;;;5021420;28;20045;-79
2022/12/05 17:28:24;;;;;;;29.92;13.07;;;6.70;99.90;;;;;;5027997;28;20057;-79
2022/12/05 17:30:51;;;;;;;31.63;15.55;;;6.70;99.90;;;;;;5039288;28;20038;-79
2022/12/05 17:33:18;;;;;;;28.63;12.98;;;6.70;99.90;;;;;;5028808;28;20410;-79
2022/12/05 17:35:46;;;;;;;25.35;12.48;;;6.70;99.90;;;;;;5022077;28;20508;-79
2022/12/05 17:38:13;;;;;;;20.92;11.60;;;7.60;99.90;;;;;;5029877;28;20136;-79
2022/12/05 17:40:41;;;;;;;24.58;13.05;;;6.70;99.90;;;;;;5042715;28;20500;-79
2022/12/05 17:43:14;;;;;;;26.50;13.73;;;6.70;99.90;;;;;;5025983;28;20053;-79
2022/12/05 17:45:47;;;;;;;22.55;10.77;;;6.70;99.90;;;;;;5041509;28;20492;-79
2022/12/05 17:48:15;;;;;;;19.83;8.65;;;6.70;99.90;;;;;;5019688;28;20389;-79
2022/12/05 17:50:45;;;;;;;16.58;8.85;;;6.70;99.90;;;;;;5022496;28;20061;-79
2022/12/05 17:53:15;;;;;;;18.08;8.88;;;6.70;99.90;;;;;;5039056;28;20037;-79
2022/12/05 17:55:43;;;;;;;16.33;9.00;;;6.70;99.90;;;;;;5039823;28;20510;-79
2022/12/05 17:58:11;;;;;;;22.02;11.60;;;6.70;99.90;;;;;;5038084;28;20989;-79
2022/12/05 18:00:38;;;;;;;19.25;8.55;;;6.70;99.90;;;;;;5019998;28;20049;-79
2022/12/05 18:03:05;;;;;;;25.98;9.63;;;6.70;99.90;;;;;;5035651;28;20137;-79
2022/12/05 18:05:33;;;;;;;18.92;8.68;;;6.70;99.90;;;;;;5024878;28;20045;-79
2022/12/05 18:08:00;;;;;;;18.98;8.55;;;6.70;99.90;;;;;;5038656;28;20091;-79
2022/12/05 18:10:27;;;;;;;19.48;9.35;;;6.70;99.90;;;;;;5038926;28;20087;-79
2022/12/05 18:12:54;;;;;;;16.95;7.82;;;6.70;99.90;;;;;;5037583;28;20530;-79
2022/12/05 18:15:21;;;;;;;18.33;8.20;;;6.70;99.90;;;;;;5024137;28;20029;-79
2022/12/05 18:17:48;;;;;;;16.27;6.85;;;6.70;99.90;;;;;;5022690;28;20048;-79
2022/12/05 18:20:15;;;;;;;18.23;7.55;;;6.70;99.90;;;;;;5037566;28;20046;-79
2022/12/05 18:22:42;;;;;;;19.45;7.80;;;6.70;99.90;;;;;;5018920;28;20076;-79
2022/12/05 18:25:10;;;;;;;20.48;7.38;;;6.70;99.90;;;;;;5027024;28;20049;-79
2022/12/05 18:27:37;;;;;;;16.10;6.07;;;6.70;99.90;;;;;;5039900;28;20049;-79
2022/12/05 18:30:06;;;;;;;20.48;9.68;;;6.70;99.90;;;;;;5027476;28;20068;-79
2022/12/05 18:32:33;;;;;;;18.60;8.57;;;6.70;99.90;;;;;;5043455;28;20042;-79
2022/12/05 18:35:02;;;;;;;22.65;9.57;;;6.60;99.90;;;;;;5036517;28;20052;-79
2022/12/05 18:37:37;;;;;;;29.30;12.32;;;6.70;99.90;;;;;;5033962;28;20052;-79
2022/12/05 18:40:06;;;;;;;18.90;8.77;;;6.70;99.90;;;;;;5042701;28;20049;-79
2022/12/05 18:42:33;;;;;;;23.00;9.50;;;6.70;99.90;;;;;;5041871;28;20505;-79
2022/12/05 18:45:01;;;;;;;17.42;8.35;;;6.70;99.90;;;;;;5028395;28;20052;-79
2022/12/05 18:47:30;;;;;;;21.40;9.90;;;6.70;99.90;;;;;;5039537;28;20446;-78
2022/12/05 18:49:59;;;;;;;17.98;7.97;;;6.60;99.90;;;;;;5039639;28;20139;-79
2022/12/05 18:52:26;;;;;;;18.83;8.30;;;6.60;99.90;;;;;;5021275;28;20045;-79
2022/12/05 18:54:54;;;;;;;19.00;8.05;;;6.60;99.90;;;;;;5025187;28;20493;-79
2022/12/05 18:57:41;;;;;;;22.35;9.70;;;6.60;99.90;;;;;;5036714;28;20102;-78
2022/12/05 19:00:09;;;;;;;16.27;7.57;;;6.60;99.90;;;;;;5032745;28;20136;-78
2022/12/05 19:02:37;;;;;;;23.65;10.23;;;6.60;99.90;;;;;;5039767;28;20045;-79
2022/12/05 19:05:05;;;;;;;15.75;8.10;;;6.60;99.90;;;;;;5022009;28;20049;-78
2022/12/05 19:07:32;;;;;;;16.77;7.50;;;6.60;99.90;;;;;;5042813;28;20403;-78
2022/12/05 19:10:00;;;;;;;16.98;8.07;;;6.60;99.90;;;;;;5027190;28;20046;-79
2022/12/05 19:12:28;;;;;;;15.00;6.93;;;6.60;99.90;;;;;;5021071;28;20048;-79
2022/12/05 19:14:55;;;;;;;15.85;7.30;;;6.60;99.90;;;;;;5035938;28;20259;-79
2022/12/05 19:17:23;;;;;;;18.88;7.97;;;6.50;99.90;;;;;;5027515;28;20099;-78
2022/12/05 19:19:52;;;;;;;14.23;6.97;;;6.50;99.90;;;;;;5023813;28;20041;-78
2022/12/05 19:22:20;;;;;;;16.63;8.25;;;6.50;99.90;;;;;;5025760;28;20069;-78
2022/12/05 19:24:47;;;;;;;21.30;10.85;;;6.50;99.90;;;;;;5048569;28;20052;-78
2022/12/05 19:27:18;;;;;;;14.88;8.02;;;6.50;99.90;;;;;;5029238;28;20139;-78
2022/12/05 19:29:45;;;;;;;18.20;8.27;;;6.50;99.90;;;;;;5026177;28;20126;-78
2022/12/05 19:32:13;;;;;;;18.33;8.93;;;6.40;99.90;;;;;;5041859;28;20061;-79
2022/12/05 19:34:41;;;;;;;22.30;10.65;;;6.50;99.90;;;;;;5034814;28;20087;-79
2022/12/05 19:37:09;;;;;;;27.75;14.93;;;6.50;99.90;;;;;;5025115;28;20052;-79
2022/12/05 19:39:37;;;;;;;22.52;10.35;;;6.50;99.90;;;;;;5024172;28;20041;-79
2022/12/05 19:42:04;;;;;;;26.23;13.02;;;6.50;99.90;;;;;;5035117;28;20048;-79
2022/12/05 19:44:32;;;;;;;21.10;9.73;;;6.50;99.90;;;;;;5031539;28;20068;-79
2022/12/05 19:46:59;;;;;;;22.10;11.35;;;6.50;99.90;;;;;;5038074;28;20051;-78
2022/12/05 19:49:27;;;;;;;32.05;14.80;;;6.50;99.90;;;;;;5031391;28;20053;-79
2022/12/05 19:51:54;;;;;;;37.10;17.85;;;6.50;99.90;;;;;;5036943;28;20052;-79
2022/12/05 19:54:25;;;;;;;50.25;21.90;;;6.50;99.90;;;;;;5020598;28;20045;-79
2022/12/05 19:56:57;;;;;;;49.38;22.05;;;6.50;99.90;;;;;;5036241;28;20038;-78
2022/12/05 19:59:24;;;;;;;46.95;21.00;;;6.50;99.90;;;;;;5042220;28;20080;-78
2022/12/05 20:01:52;;;;;;;32.08;14.80;;;6.50;99.90;;;;;;5020601;28;20041;-79
2022/12/05 20:04:20;;;;;;;27.95;12.32;;;6.50;99.90;;;;;;5017862;28;20052;-78
2022/12/05 20:06:49;;;;;;;23.38;10.88;;;6.50;99.90;;;;;;5037302;28;20064;-79
2022/12/05 20:09:19;;;;;;;21.85;11.13;;;6.50;99.90;;;;;;5038125;28;20539;-78
2022/12/05 20:11:50;;;;;;;22.08;10.50;;;6.50;99.90;;;;;;5031622;28;20037;-79
2022/12/05 20:14:23;;;;;;;21.77;10.18;;;6.50;99.90;;;;;;5025428;28;20073;-79
2022/12/05 20:16:51;;;;;;;24.88;12.02;;;6.50;99.90;;;;;;5030150;28;20038;-79
2022/12/05 20:19:19;;;;;;;20.52;9.88;;;6.50;99.90;;;;;;5018410;28;20144;-79
2022/12/05 20:21:46;;;;;;;22.10;9.57;;;6.50;99.90;;;;;;5037024;28;20045;-78
2022/12/05 20:24:13;;;;;;;18.92;8.57;;;6.50;99.90;;;;;;5021536;28;20133;-78
2022/12/05 20:26:42;;;;;;;22.52;11.80;;;6.50;99.90;;;;;;5017408;28;20060;-78
2022/12/05 20:29:10;;;;;;;20.05;9.60;;;6.50;99.90;;;;;;5040095;28;20044;-79
2022/12/05 20:31:41;;;;;;;19.38;9.98;;;6.50;99.90;;;;;;5022561;28;20045;-79
2022/12/05 20:34:12;;;;;;;23.33;10.32;;;6.50;99.90;;;;;;5033656;28;20053;-79
2022/12/05 20:36:40;;;;;;;20.63;9.65;;;6.50;99.90;;;;;;5038025;28;20827;-79
2022/12/05 20:39:14;;;;;;;25.38;11.07;;;6.50;99.90;;;;;;5039842;28;20470;-79
2022/12/05 20:41:43;;;;;;;20.13;9.68;;;6.50;99.90;;;;;;5025967;28;20515;-78
2022/12/05 20:44:13;;;;;;;28.27;11.02;;;6.50;99.90;;;;;;5027795;28;20059;-79
2022/12/05 20:46:41;;;;;;;23.77;10.07;;;6.50;99.90;;;;;;5037395;28;20055;-79
2022/12/05 20:49:08;;;;;;;24.05;11.30;;;6.50;99.90;;;;;;5023944;28;20057;-78
2022/12/05 20:51:41;;;;;;;26.27;11.55;;;6.50;99.90;;;;;;5036845;28;20053;-79
2022/12/05 20:54:11;;;;;;;28.05;11.05;;;6.50;99.90;;;;;;5041455;28;20073;-79
2022/12/05 20:56:43;;;;;;;26.85;11.15;;;6.50;99.90;;;;;;5041974;28;20061;-79
2022/12/05 20:59:12;;;;;;;23.43;10.17;;;6.50;99.90;;;;;;5025930;28;20508;-78
2022/12/05 21:01:40;;;;;;;22.20;9.48;;;6.50;99.90;;;;;;5028146;28;20045;-78
2022/12/05 21:04:10;;;;;;;27.98;10.57;;;6.50;99.90;;;;;;5038898;28;20044;-79
2022/12/05 21:06:42;;;;;;;21.30;9.57;;;6.60;99.90;;;;;;5029152;28;20123;-78
2022/12/05 21:09:17;;;;;;;21.98;10.73;;;6.50;99.90;;;;;;5028946;28;20059;-79
2022/12/05 21:11:44;;;;;;;18.83;8.88;;;6.50;99.90;;;;;;5039034;28;20049;-79
2022/12/05 21:14:12;;;;;;;18.15;9.38;;;6.50;99.90;;;;;;5042117;28;20049;-79
2022/12/05 21:16:39;;;;;;;23.85;12.07;;;6.50;99.90;;;;;;5040892;28;20377;-79
2022/12/05 21:19:09;;;;;;;19.83;8.55;;;6.50;99.90;;;;;;5038958;28;20053;-79
2022/12/05 21:21:36;;;;;;;21.70;10.07;;;6.50;99.90;;;;;;5026942;28;20496;-79
2022/12/05 21:24:05;;;;;;;24.85;9.50;;;6.50;99.90;;;;;;5023654;28;20083;-79
2022/12/05 21:26:33;;;;;;;18.20;9.25;;;6.50;99.90;;;;;;5040888;28;20869;-78
2022/12/05 21:29:01;;;;;;;22.25;9.00;;;6.50;99.90;;;;;;5025400;28;20045;-78
2022/12/05 21:31:34;;;;;;;19.35;8.68;;;6.50;99.90;;;;;;5036738;28;20053;-78
2022/12/05 21:34:05;;;;;;;23.90;10.95;;;6.50;99.90;;;;;;5041192;28;20400;-78
2022/12/05 21:36:35;;;;;;;21.17;9.48;;;6.50;99.90;;;;;;5029407;28;20519;-78